KPWM/PWM METAR and TAF weather

Enter ICAO airport designator
Station Type Date Time Source
KPWM METAR 2020/01/22 17:51 UTC NOAA

KPWM 221751Z 06003KT 10SM FEW045 SCT110 M01/M09 A3038 RMK AO2 SLP287 T10061094 10000 21133 58017


Station Type Date Time Source
KPWM Decoded METAR 2020/01/22 17:51 UTC NOAA

PORTLAND INTERNATIONAL JETPORT, ME, United States (KPWM) 43-39N 70-18W 15M
Jan 22, 2020 - 12:51 PM EST / 2020.01.22 1751 UTC
Wind: from the ENE (060 degrees) at 3 MPH (3 KT):0
Visibility: 10 mile(s):0
Sky conditions: partly cloudy
Temperature: 30.9 F (-0.6 C)
Dew Point: 15.1 F (-9.4 C)
Relative Humidity: 51%
Pressure (altimeter): 30.38 in. Hg (1028 hPa)
Pressure tendency: 0.05 inches (1.7 hPa) lower than three hours ago
ob: KPWM 221751Z 06003KT 10SM FEW045 SCT110 M01/M09 A3038 RMK AO2 SLP287 T10061094 10000 21133 58017
cycle: 18

Station Type Date Time Source
KPWM TAF 2020/01/22 18:22 UTC NOAA

TAF KPWM 221720Z 2218/2318 23004KT P6SM SCT250

Example: see airport list